createdAt,value
2018-12-17T00:01:36.572Z,1.69
2018-12-17T00:04:08.831Z,1.69
2018-12-17T00:06:41.100Z,1.68
2018-12-17T00:09:13.371Z,1.63
2018-12-17T00:11:45.655Z,1.61
2018-12-17T00:14:17.878Z,1.63
2018-12-17T00:16:50.167Z,1.58
2018-12-17T00:19:22.398Z,1.56
2018-12-17T00:21:54.684Z,1.58
2018-12-17T00:24:26.917Z,1.57
2018-12-17T00:26:59.221Z,1.57
2018-12-17T00:29:31.466Z,1.53
2018-12-17T00:32:03.754Z,1.51
2018-12-17T00:34:36.019Z,1.54
2018-12-17T00:37:08.308Z,1.54
2018-12-17T00:39:40.585Z,1.57
2018-12-17T00:42:12.834Z,1.56
2018-12-17T00:44:45.102Z,1.58
2018-12-17T00:47:17.348Z,1.61
2018-12-17T00:49:49.628Z,1.42
2018-12-17T00:52:21.879Z,1.20
2018-12-17T00:54:54.915Z,1.20
2018-12-17T00:57:27.149Z,1.23
2018-12-17T00:59:59.419Z,1.21
2018-12-17T01:02:31.653Z,1.20
2018-12-17T01:05:04.796Z,1.21
2018-12-17T01:07:37.071Z,1.18
2018-12-17T01:10:09.390Z,1.25
2018-12-17T01:12:41.629Z,1.17
2018-12-17T01:15:13.891Z,1.19
2018-12-17T01:17:46.147Z,1.27
2018-12-17T01:20:18.423Z,1.15
2018-12-17T01:22:50.748Z,1.06
2018-12-17T01:25:23.108Z,1.03
2018-12-17T01:27:55.345Z,1.02
2018-12-17T01:30:27.576Z,1.03
2018-12-17T01:32:59.812Z,1.05
2018-12-17T01:35:32.073Z,1.05
2018-12-17T01:38:04.291Z,1.03
2018-12-17T01:40:36.639Z,1.04
2018-12-17T01:43:08.881Z,1.08
2018-12-17T01:45:41.161Z,1.07
2018-12-17T01:48:13.436Z,1.00
2018-12-17T01:50:45.652Z,0.95
2018-12-17T01:53:17.935Z,0.84
2018-12-17T01:55:50.176Z,0.79
2018-12-17T01:58:29.032Z,0.80
2018-12-17T02:00:56.799Z,0.73
2018-12-17T02:03:29.094Z,0.73
2018-12-17T02:06:01.339Z,0.73
2018-12-17T02:08:33.596Z,0.71
2018-12-17T02:11:05.997Z,0.65
2018-12-17T02:13:38.500Z,0.67
2018-12-17T02:16:10.744Z,0.68
2018-12-17T02:18:43.001Z,0.72
2018-12-17T02:21:15.259Z,0.73
2018-12-17T02:23:47.454Z,0.76
2018-12-17T02:26:19.703Z,0.77
2018-12-17T02:28:51.920Z,0.75
2018-12-17T02:31:24.250Z,0.83
2018-12-17T02:33:56.471Z,0.83
2018-12-17T02:36:28.736Z,0.79
2018-12-17T02:39:01.139Z,0.72
2018-12-17T02:41:33.365Z,0.74
2018-12-17T02:44:05.782Z,0.81
2018-12-17T02:46:38.021Z,0.83
2018-12-17T02:49:10.673Z,0.84
2018-12-17T02:51:42.948Z,0.83
2018-12-17T02:54:15.159Z,0.89
2018-12-17T02:56:47.397Z,0.88
2018-12-17T02:59:19.620Z,0.89
2018-12-17T03:01:51.855Z,0.95
2018-12-17T03:04:24.123Z,0.99
2018-12-17T03:06:56.357Z,0.96
2018-12-17T03:09:28.694Z,0.96
2018-12-17T03:12:00.927Z,0.95
2018-12-17T03:14:33.159Z,0.98
2018-12-17T03:17:05.376Z,1.03
2018-12-17T03:19:37.619Z,1.09
2018-12-17T03:22:09.815Z,1.09
2018-12-17T03:24:42.134Z,1.09
2018-12-17T03:27:14.361Z,1.09
2018-12-17T03:29:46.666Z,1.08
2018-12-17T03:32:18.990Z,1.13
2018-12-17T03:34:51.323Z,1.16
2018-12-17T03:37:23.537Z,1.16
2018-12-17T03:39:55.779Z,1.18
2018-12-17T03:42:28.052Z,1.10
2018-12-17T03:45:00.295Z,1.09
2018-12-17T03:47:32.516Z,1.12
2018-12-17T03:50:05.539Z,1.15
2018-12-17T03:52:37.787Z,1.17
2018-12-17T03:55:09.991Z,1.15
2018-12-17T03:57:42.208Z,1.16
2018-12-17T04:00:14.430Z,1.18
2018-12-17T04:02:46.661Z,1.22
2018-12-17T04:05:18.875Z,1.24
2018-12-17T04:07:51.103Z,1.26
2018-12-17T04:10:23.344Z,1.23
2018-12-17T04:12:55.873Z,1.20
2018-12-17T04:15:28.396Z,1.21
2018-12-17T04:18:00.868Z,1.23
2018-12-17T04:20:33.324Z,1.22
2018-12-17T04:23:05.564Z,1.22
2018-12-17T04:25:37.758Z,1.23
2018-12-17T04:28:10.430Z,1.28
2018-12-17T04:30:42.655Z,1.23
2018-12-17T04:33:14.936Z,1.25
2018-12-17T04:35:47.267Z,1.26
2018-12-17T04:38:19.488Z,1.30
2018-12-17T04:40:51.936Z,1.31
2018-12-17T04:43:24.212Z,1.29
2018-12-17T04:45:56.464Z,1.31
2018-12-17T04:48:28.702Z,1.44
2018-12-17T04:51:00.949Z,1.38
2018-12-17T04:53:33.178Z,1.35
2018-12-17T04:56:05.417Z,1.37
2018-12-17T04:58:37.630Z,1.32
2018-12-17T05:01:16.561Z,1.30
2018-12-17T05:03:48.932Z,1.23
2018-12-17T05:06:21.144Z,1.23
2018-12-17T05:08:53.379Z,1.20
2018-12-17T05:11:25.581Z,1.23
2018-12-17T05:14:04.412Z,1.19
2018-12-17T05:16:36.644Z,1.16
2018-12-17T05:19:08.892Z,1.18
2018-12-17T05:21:41.170Z,1.20
2018-12-17T05:24:13.439Z,1.19
2018-12-17T05:26:45.676Z,1.21
2018-12-17T05:29:21.547Z,1.23
2018-12-17T05:31:52.207Z,1.15
2018-12-17T05:34:24.515Z,1.17
2018-12-17T05:36:56.710Z,1.18
2018-12-17T05:39:28.953Z,1.15
2018-12-17T05:42:01.387Z,1.11
2018-12-17T05:44:33.627Z,1.05
2018-12-17T05:47:05.836Z,0.97
2018-12-17T05:49:38.092Z,0.92
2018-12-17T05:52:10.323Z,0.89
2018-12-17T05:54:42.543Z,0.87
2018-12-17T05:57:14.759Z,0.88
2018-12-17T05:59:47.033Z,0.83
2018-12-17T06:02:19.283Z,0.84
2018-12-17T06:04:51.509Z,0.82
2018-12-17T06:07:24.013Z,0.79
2018-12-17T06:09:56.209Z,0.78
2018-12-17T06:12:28.437Z,0.74
2018-12-17T06:15:00.631Z,0.75
2018-12-17T06:20:11.926Z,0.67
2018-12-17T06:22:44.139Z,0.66
2018-12-17T06:25:17.356Z,0.64
2018-12-17T06:27:49.951Z,0.62
2018-12-17T06:30:22.175Z,0.62
2018-12-17T06:32:54.415Z,0.68
2018-12-17T06:35:26.631Z,0.59
2018-12-17T06:37:58.862Z,0.57
2018-12-17T06:40:31.107Z,0.57
2018-12-17T06:43:10.098Z,0.61
2018-12-17T06:45:42.363Z,0.62
2018-12-17T06:48:17.304Z,0.61
2018-12-17T06:50:48.847Z,0.46
2018-12-17T06:53:21.067Z,0.46
2018-12-17T06:55:53.281Z,0.48
2018-12-17T06:58:25.830Z,0.40
2018-12-17T07:00:58.003Z,0.42
2018-12-17T07:03:30.227Z,0.44
2018-12-17T07:06:02.482Z,0.44
2018-12-17T07:08:34.693Z,0.43
2018-12-17T07:11:06.908Z,0.42
2018-12-17T07:13:39.099Z,0.40
2018-12-17T07:16:11.943Z,0.39
2018-12-17T07:18:44.324Z,0.40
2018-12-17T07:21:16.610Z,0.37
2018-12-17T07:23:48.873Z,0.39
2018-12-17T07:26:21.088Z,0.43
2018-12-17T07:28:53.464Z,0.36
2018-12-17T07:31:25.663Z,0.35
2018-12-17T07:33:57.919Z,0.25
2018-12-17T07:36:30.133Z,0.23
2018-12-17T07:39:03.276Z,0.34
2018-12-17T07:41:36.231Z,0.38
2018-12-17T07:44:08.511Z,0.37
2018-12-17T07:46:40.724Z,0.42
2018-12-17T07:49:12.955Z,0.47
2018-12-17T07:51:45.168Z,0.42
2018-12-17T07:54:17.446Z,0.37
2018-12-17T07:56:49.644Z,0.39
2018-12-17T07:59:21.888Z,0.43
2018-12-17T08:01:54.144Z,0.47
2018-12-17T08:04:26.366Z,0.53
2018-12-17T08:06:58.597Z,0.60
2018-12-17T08:09:30.843Z,0.65
2018-12-17T08:12:03.099Z,0.75
2018-12-17T08:14:35.385Z,0.84
2018-12-17T08:17:07.800Z,0.88
2018-12-17T08:19:40.028Z,0.86
2018-12-17T08:22:12.247Z,0.94
2018-12-17T08:24:44.470Z,1.04
2018-12-17T08:27:16.735Z,1.13
2018-12-17T08:29:48.969Z,1.33
2018-12-17T08:32:21.187Z,1.40
2018-12-17T08:34:53.431Z,1.49
2018-12-17T08:37:25.680Z,1.62
2018-12-17T08:39:57.919Z,1.76
2018-12-17T08:42:30.149Z,1.72
2018-12-17T08:45:02.444Z,1.71
2018-12-17T08:47:34.854Z,1.82
2018-12-17T08:50:07.264Z,1.91
2018-12-17T08:52:39.506Z,1.92
2018-12-17T08:55:11.707Z,1.85
2018-12-17T08:57:43.963Z,1.92
2018-12-17T09:00:16.228Z,1.93
2018-12-17T09:02:48.474Z,1.98
2018-12-17T09:05:20.743Z,2.07
2018-12-17T09:07:53.099Z,2.11
2018-12-17T09:10:25.340Z,2.07
2018-12-17T09:12:57.642Z,2.09
2018-12-17T09:15:29.857Z,2.16
2018-12-17T09:18:02.108Z,2.18
2018-12-17T09:20:34.447Z,2.18
2018-12-17T09:23:06.707Z,2.22
2018-12-17T09:25:38.928Z,2.27
2018-12-17T09:28:11.185Z,2.37
2018-12-17T09:30:43.515Z,2.45
2018-12-17T09:33:15.838Z,2.53
2018-12-17T09:35:48.107Z,2.56
2018-12-17T09:38:20.381Z,2.65
2018-12-17T09:40:52.612Z,2.70
2018-12-17T09:43:24.891Z,2.73
2018-12-17T09:45:57.198Z,2.74
2018-12-17T09:48:29.504Z,2.77
2018-12-17T09:51:01.760Z,2.84
2018-12-17T09:53:34.019Z,2.92
2018-12-17T09:56:06.319Z,2.99
2018-12-17T09:58:38.972Z,3.03
2018-12-17T10:01:11.224Z,3.05
2018-12-17T10:03:43.501Z,3.32
2018-12-17T10:06:16.015Z,3.54
2018-12-17T10:08:48.249Z,3.74
2018-12-17T10:11:20.497Z,4.15
2018-12-17T10:13:52.732Z,4.32
2018-12-17T10:16:25.008Z,4.54
2018-12-17T10:18:57.255Z,4.54
2018-12-17T10:21:29.584Z,4.79
2018-12-17T10:24:02.069Z,4.97
2018-12-17T10:26:34.660Z,5.03
2018-12-17T10:29:06.992Z,4.91
2018-12-17T10:31:39.239Z,4.89
2018-12-17T10:34:11.484Z,4.93
2018-12-17T10:36:43.760Z,5.15
2018-12-17T10:39:16.017Z,5.33
2018-12-17T10:41:48.313Z,5.34
2018-12-17T10:44:20.579Z,5.40
2018-12-17T10:46:52.975Z,5.48
2018-12-17T10:49:25.238Z,5.42
2018-12-17T10:51:57.502Z,5.27
2018-12-17T10:54:29.732Z,5.16
2018-12-17T10:57:01.973Z,5.20
2018-12-17T10:59:34.244Z,5.19
2018-12-17T11:02:13.085Z,5.17
2018-12-17T11:04:49.809Z,5.18
2018-12-17T11:07:22.080Z,5.28
2018-12-17T11:09:54.352Z,5.36
2018-12-17T11:12:26.611Z,5.30
2018-12-17T11:14:58.848Z,5.47
2018-12-17T11:17:31.112Z,5.53
2018-12-17T11:20:04.128Z,5.50
2018-12-17T11:22:36.368Z,5.53
2018-12-17T11:25:08.608Z,5.58
2018-12-17T11:27:40.852Z,5.73
2018-12-17T11:30:13.111Z,5.93
2018-12-17T11:32:45.382Z,6.08
2018-12-17T11:35:17.587Z,5.84
2018-12-17T11:37:49.868Z,5.79
2018-12-17T11:40:22.091Z,5.87
2018-12-17T11:42:54.339Z,6.18
2018-12-17T11:45:26.917Z,6.14
2018-12-17T11:47:59.227Z,5.88
2018-12-17T11:50:31.469Z,5.88
2018-12-17T11:53:03.865Z,5.90
2018-12-17T11:55:36.220Z,5.93
2018-12-17T11:58:10.905Z,5.94
2018-12-17T12:00:53.669Z,6.04
2018-12-17T12:03:23.688Z,6.14
2018-12-17T12:05:55.959Z,6.13
2018-12-17T12:08:28.272Z,6.17
2018-12-17T12:11:00.564Z,6.20
2018-12-17T12:13:32.852Z,6.23
2018-12-17T12:16:05.084Z,6.28
2018-12-17T12:18:37.419Z,6.29
2018-12-17T12:21:09.666Z,6.30
2018-12-17T12:23:41.930Z,6.37
2018-12-17T12:26:14.196Z,6.31
2018-12-17T12:28:46.452Z,6.31
2018-12-17T12:31:18.686Z,6.31
2018-12-17T12:33:50.937Z,6.41
2018-12-17T12:36:23.167Z,6.35
2018-12-17T12:38:55.513Z,6.34
2018-12-17T12:41:27.811Z,6.31
2018-12-17T12:44:00.053Z,6.29
2018-12-17T12:46:32.337Z,6.29
2018-12-17T12:49:04.625Z,6.30
2018-12-17T12:51:36.959Z,6.27
2018-12-17T12:54:09.276Z,6.25
2018-12-17T12:56:41.562Z,6.27
2018-12-17T12:59:13.853Z,6.25
2018-12-17T13:01:46.151Z,6.26
2018-12-17T13:04:18.399Z,6.28
2018-12-17T13:06:50.676Z,6.25
2018-12-17T13:09:22.988Z,6.22
2018-12-17T13:11:55.279Z,6.21
2018-12-17T13:14:27.566Z,6.22
2018-12-17T13:17:04.400Z,6.25
2018-12-17T13:19:36.886Z,6.31
2018-12-17T13:22:09.119Z,6.26
2018-12-17T13:24:41.375Z,6.27
2018-12-17T13:27:13.657Z,6.25
2018-12-17T13:29:46.137Z,6.24
2018-12-17T13:32:18.959Z,6.20
2018-12-17T13:34:51.207Z,6.19
2018-12-17T13:37:23.683Z,6.15
2018-12-17T13:39:55.945Z,6.14
2018-12-17T13:42:28.205Z,6.17
2018-12-17T13:45:01.160Z,6.11
2018-12-17T13:47:33.476Z,6.10
2018-12-17T13:50:11.457Z,6.03
2018-12-17T13:52:46.198Z,6.01
2018-12-17T13:55:18.483Z,5.97
2018-12-17T13:57:50.788Z,5.96
2018-12-17T14:00:23.051Z,5.93
2018-12-17T14:02:55.357Z,5.86
2018-12-17T14:05:27.617Z,5.86
2018-12-17T14:07:59.916Z,5.83
2018-12-17T14:10:37.915Z,5.80
2018-12-17T14:13:10.183Z,5.78
2018-12-17T14:15:48.112Z,5.75
2018-12-17T14:18:26.060Z,5.68
2018-12-17T14:21:04.241Z,5.69
2018-12-17T14:23:36.641Z,5.64
2018-12-17T14:26:08.949Z,5.62
2018-12-17T14:28:41.260Z,5.63
2018-12-17T14:31:13.576Z,5.59
2018-12-17T14:33:45.863Z,5.54
2018-12-17T14:36:18.153Z,5.55
2018-12-17T14:38:50.444Z,5.54
2018-12-17T14:41:22.693Z,5.53
2018-12-17T14:43:59.584Z,5.49
2018-12-17T14:46:36.385Z,5.49
2018-12-17T14:49:08.655Z,5.47
2018-12-17T14:51:40.918Z,5.47
2018-12-17T14:54:13.266Z,5.48
2018-12-17T14:56:45.590Z,5.42
2018-12-17T14:59:17.820Z,5.41
2018-12-17T15:01:50.129Z,5.41
2018-12-17T15:04:22.428Z,5.37
2018-12-17T15:06:54.720Z,5.33
2018-12-17T15:09:27.080Z,5.29
2018-12-17T15:11:59.387Z,5.22
2018-12-17T15:14:31.713Z,5.20
2018-12-17T15:17:04.049Z,5.15
2018-12-17T15:19:36.329Z,5.17
2018-12-17T15:22:08.624Z,5.15
2018-12-17T15:24:41.017Z,5.13
2018-12-17T15:27:13.409Z,5.12
2018-12-17T15:29:45.678Z,5.12
2018-12-17T15:32:18.037Z,5.10
2018-12-17T15:34:50.283Z,5.10
2018-12-17T15:37:22.705Z,5.20
2018-12-17T15:39:54.975Z,5.15
2018-12-17T15:42:27.269Z,5.10
2018-12-17T15:45:00.525Z,5.07
2018-12-17T15:47:32.879Z,5.04
2018-12-17T15:50:05.280Z,4.99
2018-12-17T15:52:37.599Z,4.97
2018-12-17T15:55:09.961Z,4.95
2018-12-17T15:57:42.276Z,4.95
2018-12-17T16:00:14.566Z,4.95
2018-12-17T16:02:46.881Z,4.94
2018-12-17T16:05:20.160Z,4.93
2018-12-17T16:07:52.468Z,4.88
2018-12-17T16:10:24.717Z,4.88
2018-12-17T16:12:57.036Z,4.89
2018-12-17T16:15:29.309Z,4.92
2018-12-17T16:18:01.586Z,4.94
2018-12-17T16:20:33.970Z,5.10
2018-12-17T16:23:06.254Z,5.00
2018-12-17T16:25:38.600Z,4.88
2018-12-17T16:28:10.901Z,4.86
2018-12-17T16:30:43.243Z,4.79
2018-12-17T16:33:15.577Z,4.76
2018-12-17T16:35:47.909Z,4.74
2018-12-17T16:38:20.211Z,4.76
2018-12-17T16:40:52.544Z,4.78
2018-12-17T16:43:24.844Z,4.78
2018-12-17T16:45:57.189Z,4.75
2018-12-17T16:48:29.437Z,4.74
2018-12-17T16:51:01.793Z,4.74
2018-12-17T16:53:34.149Z,4.71
2018-12-17T16:56:06.564Z,4.61
2018-12-17T16:58:38.892Z,4.57
2018-12-17T17:01:11.267Z,4.57
2018-12-17T17:03:43.548Z,4.60
2018-12-17T17:06:15.955Z,4.60
2018-12-17T17:08:48.304Z,4.57
2018-12-17T17:11:20.671Z,4.61
2018-12-17T17:13:52.991Z,4.63
2018-12-17T17:16:25.526Z,4.48
2018-12-17T17:18:57.896Z,4.50
2018-12-17T17:21:30.196Z,4.55
2018-12-17T17:24:02.516Z,4.56
2018-12-17T17:26:34.806Z,4.62
2018-12-17T17:29:07.146Z,4.62
2018-12-17T17:31:39.521Z,4.66
2018-12-17T17:34:11.935Z,4.61
2018-12-17T17:36:44.269Z,4.65
2018-12-17T17:39:16.619Z,4.74
2018-12-17T17:41:48.947Z,4.77
2018-12-17T17:44:21.380Z,4.62
2018-12-17T17:46:53.663Z,4.47
2018-12-17T17:49:26.031Z,4.50
2018-12-17T17:51:58.340Z,4.51
2018-12-17T17:54:30.668Z,4.50
2018-12-17T17:57:03.013Z,4.47
2018-12-17T17:59:35.338Z,4.50
2018-12-17T18:02:07.413Z,4.52
2018-12-17T18:04:39.756Z,4.50
2018-12-17T18:07:12.148Z,4.54
2018-12-17T18:09:44.607Z,4.53
2018-12-17T18:12:17.009Z,4.62
2018-12-17T18:14:49.381Z,4.62
2018-12-17T18:17:21.686Z,4.57
2018-12-17T18:19:54.078Z,4.50
2018-12-17T18:22:26.418Z,4.51
2018-12-17T18:24:58.815Z,4.44
2018-12-17T18:30:29.390Z,4.44
2018-12-17T18:33:01.773Z,4.39
2018-12-17T18:35:34.211Z,4.46
2018-12-17T18:38:06.553Z,4.48
2018-12-17T18:40:39.083Z,4.50
2018-12-17T18:43:11.494Z,4.47
2018-12-17T18:45:44.062Z,4.46
2018-12-17T18:48:16.502Z,4.43
2018-12-17T18:50:48.935Z,4.47
2018-12-17T18:53:21.328Z,4.56
2018-12-17T18:55:53.960Z,4.51
2018-12-17T18:58:26.385Z,4.49
2018-12-17T19:00:58.962Z,4.47
2018-12-17T19:03:31.325Z,4.51
2018-12-17T19:06:04.096Z,4.47
2018-12-17T19:08:36.504Z,4.45
2018-12-17T19:11:08.922Z,4.46
2018-12-17T19:13:41.444Z,4.47
2018-12-17T19:16:13.824Z,4.43
2018-12-17T19:18:46.264Z,4.40
2018-12-17T19:21:18.732Z,4.39
2018-12-17T19:23:51.092Z,4.46
2018-12-17T19:26:23.580Z,4.41
2018-12-17T19:28:56.013Z,4.43
2018-12-17T19:31:34.396Z,4.40
2018-12-17T19:34:02.765Z,4.42
2018-12-17T19:36:35.313Z,4.36
2018-12-17T19:39:08.215Z,4.31
2018-12-17T19:41:40.617Z,4.29
2018-12-17T19:44:13.130Z,4.26
2018-12-17T19:46:45.512Z,4.33
2018-12-17T19:49:17.900Z,4.40
2018-12-17T19:51:50.280Z,4.41
2018-12-17T19:54:22.846Z,4.31
2018-12-17T19:56:55.396Z,4.29
2018-12-17T19:59:27.948Z,4.29
2018-12-17T20:02:00.428Z,4.30
2018-12-17T20:04:33.090Z,4.33
2018-12-17T20:07:05.492Z,4.36
2018-12-17T20:09:38.026Z,4.35
2018-12-17T20:12:10.414Z,4.31
2018-12-17T20:14:43.158Z,4.27
2018-12-17T20:17:15.562Z,4.24
2018-12-17T20:19:48.027Z,4.27
2018-12-17T20:22:20.567Z,4.33
2018-12-17T20:24:53.079Z,4.42
2018-12-17T20:27:25.447Z,4.46
2018-12-17T20:29:57.950Z,4.50
2018-12-17T20:32:30.468Z,4.56
2018-12-17T20:35:02.983Z,4.55
2018-12-17T20:37:35.404Z,4.51
2018-12-17T20:40:09.026Z,4.45
2018-12-17T20:42:41.517Z,4.49
2018-12-17T20:45:14.052Z,4.51
2018-12-17T20:47:46.489Z,4.55
2018-12-17T20:50:18.900Z,4.53
2018-12-17T20:52:51.306Z,4.54
2018-12-17T20:55:30.351Z,4.54
2018-12-17T20:57:58.927Z,4.53
2018-12-17T21:00:31.566Z,4.56
2018-12-17T21:03:04.005Z,4.59
2018-12-17T21:05:36.449Z,4.59
2018-12-17T21:08:08.845Z,4.61
2018-12-17T21:10:41.217Z,4.65
2018-12-17T21:13:13.613Z,4.68
2018-12-17T21:15:46.874Z,4.66
2018-12-17T21:18:19.329Z,4.67
2018-12-17T21:20:51.710Z,4.64
2018-12-17T21:23:24.075Z,4.55
2018-12-17T21:25:56.359Z,4.51
2018-12-17T21:28:28.692Z,4.53
2018-12-17T21:31:01.029Z,4.54
2018-12-17T21:33:33.409Z,4.53
2018-12-17T21:36:05.741Z,4.53
2018-12-17T21:38:38.042Z,4.49
2018-12-17T21:41:10.453Z,4.49
2018-12-17T21:43:42.784Z,4.49
2018-12-17T21:46:15.141Z,4.49
2018-12-17T21:48:47.450Z,4.51
2018-12-17T21:51:19.708Z,4.55
2018-12-17T21:53:52.132Z,4.55
2018-12-17T21:56:24.409Z,4.55
2018-12-17T21:58:56.741Z,4.57
2018-12-17T22:01:29.032Z,4.56
2018-12-17T22:04:01.410Z,4.55
2018-12-17T22:06:33.862Z,4.54
2018-12-17T22:09:07.051Z,4.56
2018-12-17T22:11:39.382Z,4.53
2018-12-17T22:14:11.756Z,4.54
2018-12-17T22:16:44.116Z,4.53
2018-12-17T22:19:16.364Z,4.48
2018-12-17T22:21:48.620Z,4.46
2018-12-17T22:24:20.914Z,4.42
2018-12-17T22:26:53.193Z,4.35
2018-12-17T22:29:25.551Z,4.33
2018-12-17T22:31:57.914Z,4.35
2018-12-17T22:34:30.220Z,4.35
2018-12-17T22:37:02.630Z,4.37
2018-12-17T22:39:34.911Z,4.38
2018-12-17T22:42:07.208Z,4.36
2018-12-17T22:44:39.731Z,4.46
2018-12-17T22:47:12.032Z,4.29
2018-12-17T22:49:44.335Z,4.27
2018-12-17T22:52:16.657Z,4.20
2018-12-17T22:54:49.011Z,4.18
2018-12-17T22:57:21.302Z,4.19
2018-12-17T22:59:53.583Z,4.15
2018-12-17T23:02:25.862Z,4.18
2018-12-17T23:04:58.157Z,4.22
2018-12-17T23:07:30.429Z,4.22
2018-12-17T23:10:14.211Z,4.24
2018-12-17T23:12:57.964Z,4.23
2018-12-17T23:15:41.581Z,4.23
2018-12-17T23:18:14.259Z,4.25
2018-12-17T23:20:46.782Z,4.24
2018-12-17T23:23:19.133Z,4.27
2018-12-17T23:25:51.404Z,4.26
2018-12-17T23:28:23.663Z,4.27
2018-12-17T23:30:55.942Z,4.33
2018-12-17T23:33:32.778Z,4.32
2018-12-17T23:36:02.615Z,4.22
2018-12-17T23:38:35.020Z,4.16
2018-12-17T23:41:07.334Z,4.14
2018-12-17T23:43:39.579Z,4.10
2018-12-17T23:46:11.987Z,4.05
2018-12-17T23:48:44.271Z,4.06
2018-12-17T23:51:16.613Z,4.02
2018-12-17T23:53:48.891Z,4.01
2018-12-17T23:56:21.185Z,4.03
2018-12-17T23:58:53.468Z,4.04
